createdAt,value
2017-12-27T00:01:20.738Z,50.40
2017-12-27T00:03:53.918Z,50.30
2017-12-27T00:06:27.774Z,50.40
2017-12-27T00:12:04.654Z,50.30
2017-12-27T00:14:39.578Z,50.30
2017-12-27T00:17:13.429Z,50.30
2017-12-27T00:22:49.354Z,50.20
2017-12-27T00:25:23.298Z,50.20
2017-12-27T00:27:56.438Z,50.30
2017-12-27T00:30:29.534Z,50.20
2017-12-27T00:32:56.967Z,50.20
2017-12-27T00:35:24.395Z,50.20
2017-12-27T00:37:51.847Z,50.20
2017-12-27T00:40:19.290Z,50.20
2017-12-27T00:42:46.715Z,50.20
2017-12-27T00:45:14.914Z,50.20
2017-12-27T00:47:42.353Z,50.20
2017-12-27T00:50:10.542Z,50.30
2017-12-27T00:52:37.969Z,50.20
2017-12-27T00:55:06.167Z,50.20
2017-12-27T00:57:33.596Z,50.20
2017-12-27T01:00:01.031Z,50.20
2017-12-27T01:02:28.453Z,50.20
2017-12-27T01:04:55.885Z,50.20
2017-12-27T01:07:23.315Z,50.10
2017-12-27T01:09:51.510Z,49.60
2017-12-27T01:12:18.958Z,50.10
2017-12-27T01:14:47.161Z,50.10
2017-12-27T01:17:14.610Z,50.10
2017-12-27T01:19:42.034Z,50.10
2017-12-27T01:22:10.242Z,50.20
2017-12-27T01:24:37.672Z,50.10
2017-12-27T01:29:39.850Z,50.20
2017-12-27T01:32:08.057Z,50.20
2017-12-27T01:34:35.488Z,50.20
2017-12-27T01:37:03.698Z,50.10
2017-12-27T01:39:31.130Z,50.10
2017-12-27T01:41:58.560Z,50.10
2017-12-27T01:44:26.754Z,50.10
2017-12-27T01:47:06.046Z,50.10
2017-12-27T01:49:33.477Z,50.10
2017-12-27T01:52:00.906Z,50.10
2017-12-27T01:54:28.338Z,50.10
2017-12-27T01:56:56.531Z,50.10
2017-12-27T01:59:23.983Z,50.10
2017-12-27T02:01:51.412Z,50.10
2017-12-27T02:04:18.830Z,50.10
2017-12-27T02:06:46.254Z,50.00
2017-12-27T02:09:13.690Z,50.10
2017-12-27T02:11:41.886Z,50.00
2017-12-27T02:14:09.318Z,50.00
2017-12-27T02:16:37.510Z,50.00
2017-12-27T02:19:04.942Z,50.00
2017-12-27T02:21:33.134Z,50.00
2017-12-27T02:24:00.586Z,50.00
2017-12-27T02:26:28.005Z,49.90
2017-12-27T02:28:55.430Z,49.90
2017-12-27T02:31:22.858Z,49.90
2017-12-27T02:33:50.295Z,50.00
2017-12-27T02:36:18.494Z,50.00
2017-12-27T02:38:57.725Z,50.00
2017-12-27T02:41:25.289Z,49.90
2017-12-27T02:43:52.713Z,49.90
2017-12-27T02:46:20.905Z,49.90
2017-12-27T02:48:48.343Z,49.90
2017-12-27T02:51:16.534Z,49.80
2017-12-27T02:53:43.986Z,49.80
2017-12-27T02:56:11.419Z,49.80
2017-12-27T02:58:39.617Z,50.50
2017-12-27T03:01:07.046Z,49.90
2017-12-27T03:03:35.254Z,49.90
2017-12-27T03:06:02.689Z,49.80
2017-12-27T03:08:30.138Z,49.90
2017-12-27T03:10:58.337Z,49.80
2017-12-27T03:13:25.777Z,49.80
2017-12-27T03:15:53.202Z,49.80
2017-12-27T03:18:20.641Z,49.80
2017-12-27T03:20:48.071Z,49.70
2017-12-27T03:23:15.498Z,50.50
2017-12-27T03:25:42.923Z,49.80
2017-12-27T03:28:10.347Z,49.80
2017-12-27T03:30:37.770Z,49.80
2017-12-27T03:33:05.195Z,49.80
2017-12-27T03:35:33.390Z,49.80
2017-12-27T03:38:00.817Z,49.70
2017-12-27T03:40:28.247Z,49.70
2017-12-27T03:42:55.675Z,49.40
2017-12-27T03:45:23.126Z,49.60
2017-12-27T03:47:50.556Z,49.60
2017-12-27T03:50:18.746Z,49.60
2017-12-27T03:52:46.169Z,49.60
2017-12-27T03:55:14.370Z,49.60
2017-12-27T03:57:41.806Z,49.50
2017-12-27T04:00:09.998Z,49.60
2017-12-27T04:02:37.422Z,49.60
2017-12-27T04:05:04.859Z,49.70
2017-12-27T04:07:32.289Z,50.00
2017-12-27T04:09:59.734Z,49.60
2017-12-27T04:12:27.166Z,49.60
2017-12-27T04:14:55.393Z,49.60
2017-12-27T04:17:22.805Z,49.60
2017-12-27T04:19:50.241Z,49.60
2017-12-27T04:22:18.466Z,49.60
2017-12-27T04:24:45.903Z,49.60
2017-12-27T04:27:13.326Z,49.50
2017-12-27T04:29:41.563Z,49.50
2017-12-27T04:32:08.988Z,49.50
2017-12-27T04:34:36.426Z,49.50
2017-12-27T04:37:03.877Z,49.50
2017-12-27T04:39:32.087Z,49.50
2017-12-27T04:41:59.506Z,49.50
2017-12-27T04:44:27.018Z,49.40
2017-12-27T04:46:54.519Z,49.40
2017-12-27T04:49:22.951Z,49.40
2017-12-27T04:51:51.385Z,49.40
2017-12-27T04:54:18.930Z,49.40
2017-12-27T04:56:47.125Z,49.50
2017-12-27T04:59:14.544Z,49.40
2017-12-27T05:01:42.737Z,49.40
2017-12-27T05:04:10.170Z,49.40
2017-12-27T05:06:38.374Z,50.30
2017-12-27T05:09:05.798Z,49.50
2017-12-27T05:11:33.236Z,49.40
2017-12-27T05:14:00.986Z,49.40
2017-12-27T05:16:29.407Z,49.30
2017-12-27T05:18:58.823Z,49.30
2017-12-27T05:21:28.570Z,49.30
2017-12-27T05:23:58.172Z,49.30
2017-12-27T05:26:26.370Z,49.30
2017-12-27T05:28:53.915Z,49.30
2017-12-27T05:31:21.802Z,49.30
2017-12-27T05:33:49.664Z,49.20
2017-12-27T05:36:17.266Z,49.30
2017-12-27T05:38:44.698Z,49.20
2017-12-27T05:41:12.919Z,49.30
2017-12-27T05:43:40.333Z,49.10
2017-12-27T05:46:09.251Z,49.20
2017-12-27T05:48:36.674Z,49.20
2017-12-27T05:51:04.891Z,49.10
2017-12-27T05:53:32.309Z,49.10
2017-12-27T05:56:00.535Z,49.10
2017-12-27T05:58:28.031Z,49.10
2017-12-27T06:00:57.788Z,49.10
2017-12-27T06:03:29.342Z,49.10
2017-12-27T06:05:59.773Z,49.10
2017-12-27T06:08:28.323Z,49.10
2017-12-27T06:10:59.648Z,49.10
2017-12-27T06:13:29.496Z,49.10
2017-12-27T06:16:00.555Z,49.10
2017-12-27T06:18:30.244Z,49.00
2017-12-27T06:21:00.752Z,49.00
2017-12-27T06:23:30.770Z,49.10
2017-12-27T06:25:58.978Z,49.10
2017-12-27T06:28:26.435Z,49.10
2017-12-27T06:30:53.907Z,49.10
2017-12-27T06:33:22.811Z,49.10
2017-12-27T06:35:53.311Z,49.10
2017-12-27T06:38:27.685Z,49.20
2017-12-27T06:40:56.417Z,49.10
2017-12-27T06:43:26.773Z,49.10
2017-12-27T06:45:56.654Z,49.10
2017-12-27T06:48:25.158Z,49.10
2017-12-27T06:50:55.722Z,49.10
2017-12-27T06:53:26.385Z,49.20
2017-12-27T06:55:55.829Z,49.30
2017-12-27T06:58:25.832Z,49.20
2017-12-27T07:00:54.935Z,49.20
2017-12-27T07:03:25.632Z,49.20
2017-12-27T07:05:53.068Z,49.20
2017-12-27T07:08:20.530Z,49.10
2017-12-27T07:10:48.022Z,49.10
2017-12-27T07:13:15.440Z,49.10
2017-12-27T07:15:42.865Z,49.10
2017-12-27T07:18:10.336Z,49.10
2017-12-27T07:20:38.580Z,49.10
2017-12-27T07:23:06.047Z,49.00
2017-12-27T07:25:34.244Z,49.20
2017-12-27T07:28:01.693Z,49.00
2017-12-27T07:30:29.117Z,49.20
2017-12-27T07:32:57.327Z,49.20
2017-12-27T07:35:26.056Z,49.10
2017-12-27T07:37:56.135Z,49.10
2017-12-27T07:40:24.684Z,49.40
2017-12-27T07:42:54.804Z,49.70
2017-12-27T07:45:27.130Z,50.60
2017-12-27T07:47:57.417Z,49.90
2017-12-27T07:50:27.229Z,50.00
2017-12-27T07:52:58.718Z,50.10
2017-12-27T07:55:30.062Z,50.10
2017-12-27T07:58:00.259Z,50.20
2017-12-27T08:00:32.567Z,50.30
2017-12-27T08:03:00.398Z,50.30
2017-12-27T08:05:31.333Z,50.30
2017-12-27T08:08:02.026Z,50.40
2017-12-27T08:10:30.690Z,50.40
2017-12-27T08:13:05.881Z,50.40
2017-12-27T08:15:33.310Z,50.60
2017-12-27T08:18:03.321Z,50.50
2017-12-27T08:20:31.761Z,50.60
2017-12-27T08:23:11.366Z,50.60
2017-12-27T08:25:39.642Z,50.70
2017-12-27T08:28:08.325Z,50.50
2017-12-27T08:30:35.927Z,50.50
2017-12-27T08:33:03.649Z,50.50
2017-12-27T08:35:31.304Z,50.40
2017-12-27T08:38:00.069Z,50.30
2017-12-27T08:40:30.724Z,50.40
2017-12-27T08:42:58.550Z,50.30
2017-12-27T08:45:27.684Z,50.60
2017-12-27T08:48:01.694Z,50.80
2017-12-27T08:50:34.737Z,50.80
2017-12-27T08:53:02.250Z,50.90
2017-12-27T08:55:30.468Z,51.00
2017-12-27T08:57:59.072Z,51.00
2017-12-27T09:00:33.830Z,51.20
2017-12-27T09:03:01.637Z,51.20
2017-12-27T09:05:31.420Z,51.40
2017-12-27T09:08:00.172Z,51.50
2017-12-27T09:10:30.820Z,51.50
2017-12-27T09:13:04.862Z,51.80
2017-12-27T09:15:34.532Z,51.70
2017-12-27T09:18:02.080Z,51.70
2017-12-27T09:20:32.444Z,52.00
2017-12-27T09:23:02.749Z,52.00
2017-12-27T09:25:30.202Z,52.20
2017-12-27T09:27:59.829Z,52.30
2017-12-27T09:30:27.283Z,52.20
2017-12-27T09:32:57.473Z,52.20
2017-12-27T09:35:25.810Z,52.00
2017-12-27T09:37:55.605Z,52.00
2017-12-27T09:40:26.824Z,51.90
2017-12-27T09:42:56.870Z,51.90
2017-12-27T09:45:28.779Z,51.90
2017-12-27T09:47:57.602Z,52.00
2017-12-27T09:50:27.686Z,52.00
2017-12-27T09:53:01.256Z,52.00
2017-12-27T09:55:29.002Z,52.00
2017-12-27T09:57:59.482Z,51.90
2017-12-27T10:00:29.900Z,51.90
2017-12-27T10:02:59.608Z,51.90
2017-12-27T10:05:30.326Z,51.90
2017-12-27T10:08:00.408Z,51.80
2017-12-27T10:10:31.319Z,51.80
2017-12-27T10:13:01.474Z,51.90
2017-12-27T10:15:31.358Z,51.90
2017-12-27T10:18:02.873Z,51.90
2017-12-27T10:20:32.807Z,51.90
2017-12-27T10:23:03.650Z,51.80
2017-12-27T10:25:31.123Z,51.90
2017-12-27T10:27:58.546Z,51.90
2017-12-27T10:30:26.035Z,52.00
2017-12-27T10:32:54.748Z,52.10
2017-12-27T10:35:25.081Z,52.10
2017-12-27T10:37:56.598Z,52.10
2017-12-27T10:40:28.302Z,52.00
2017-12-27T10:42:57.389Z,52.00
2017-12-27T10:45:27.333Z,52.00
2017-12-27T10:47:57.601Z,52.00
2017-12-27T10:50:27.807Z,52.10
2017-12-27T10:53:00.431Z,52.10
2017-12-27T10:55:28.774Z,52.00
2017-12-27T10:58:02.463Z,52.00
2017-12-27T11:00:29.942Z,52.70
2017-12-27T11:03:00.652Z,52.10
2017-12-27T11:05:29.815Z,52.00
2017-12-27T11:08:00.653Z,51.90
2017-12-27T11:10:31.183Z,51.80
2017-12-27T11:13:01.307Z,51.70
2017-12-27T11:15:38.142Z,51.60
2017-12-27T11:18:06.342Z,51.60
2017-12-27T11:20:34.424Z,51.60
2017-12-27T11:23:03.262Z,51.60
2017-12-27T11:25:31.470Z,51.60
2017-12-27T11:28:01.686Z,51.50
2017-12-27T11:33:07.826Z,51.50
2017-12-27T11:35:36.176Z,51.40
2017-12-27T11:38:05.799Z,51.40
2017-12-27T11:40:36.931Z,51.70
2017-12-27T11:43:06.731Z,51.70
2017-12-27T11:45:37.236Z,51.80
2017-12-27T11:48:07.759Z,51.90
2017-12-27T11:50:39.127Z,52.00
2017-12-27T11:53:08.494Z,52.00
2017-12-27T11:55:39.495Z,51.90
2017-12-27T11:58:11.658Z,52.10
2017-12-27T12:00:41.581Z,52.20
2017-12-27T12:03:10.528Z,52.20
2017-12-27T12:05:40.839Z,52.10
2017-12-27T12:08:11.468Z,52.20
2017-12-27T12:10:41.099Z,52.10
2017-12-27T12:13:11.525Z,52.10
2017-12-27T12:15:42.804Z,52.10
2017-12-27T12:18:12.475Z,52.10
2017-12-27T12:20:50.100Z,52.20
2017-12-27T12:23:18.374Z,52.20
2017-12-27T12:25:45.861Z,52.20
2017-12-27T12:28:14.132Z,52.30
2017-12-27T12:30:42.338Z,52.30
2017-12-27T12:33:09.782Z,52.20
2017-12-27T12:35:37.245Z,52.20
2017-12-27T12:38:04.672Z,52.30
2017-12-27T12:40:32.136Z,52.30
2017-12-27T12:43:00.370Z,52.30
2017-12-27T12:45:27.930Z,52.30
2017-12-27T12:47:58.690Z,52.40
2017-12-27T12:50:28.411Z,52.50
2017-12-27T12:52:58.481Z,52.50
2017-12-27T12:55:29.637Z,52.40
2017-12-27T12:57:59.415Z,52.50
2017-12-27T13:00:29.927Z,52.50
2017-12-27T13:03:00.310Z,52.50
2017-12-27T13:05:30.643Z,52.50
2017-12-27T13:08:01.341Z,52.40
2017-12-27T13:10:31.267Z,52.40
2017-12-27T13:13:02.673Z,52.10
2017-12-27T13:15:32.663Z,52.20
2017-12-27T13:18:01.754Z,52.10
2017-12-27T13:20:33.313Z,52.10
2017-12-27T13:23:03.252Z,52.00
2017-12-27T13:25:30.752Z,51.90
2017-12-27T13:27:58.219Z,51.80
2017-12-27T13:30:26.683Z,51.40
2017-12-27T13:32:55.848Z,51.40
2017-12-27T13:35:26.349Z,51.10
2017-12-27T13:37:56.860Z,50.50
2017-12-27T13:40:27.493Z,50.40
2017-12-27T13:42:57.723Z,50.40
2017-12-27T13:45:31.143Z,50.30
2017-12-27T13:47:58.782Z,50.20
2017-12-27T13:50:29.333Z,50.30
2017-12-27T13:52:58.852Z,50.30
2017-12-27T13:55:29.940Z,50.20
2017-12-27T13:58:01.653Z,50.30
2017-12-27T14:00:31.912Z,50.30
2017-12-27T14:03:01.666Z,50.40
2017-12-27T14:05:31.630Z,50.50
2017-12-27T14:08:02.660Z,50.60
2017-12-27T14:10:33.512Z,50.50
2017-12-27T14:13:03.782Z,50.50
2017-12-27T14:15:34.129Z,50.50
2017-12-27T14:18:05.160Z,50.60
2017-12-27T14:20:32.603Z,50.50
2017-12-27T14:23:00.063Z,50.70
2017-12-27T14:25:27.514Z,50.80
2017-12-27T14:27:55.037Z,51.00
2017-12-27T14:30:22.500Z,51.00
2017-12-27T14:32:51.195Z,51.30
2017-12-27T14:35:20.722Z,51.40
2017-12-27T14:37:51.558Z,51.50
2017-12-27T14:40:23.053Z,51.60
2017-12-27T14:42:54.249Z,51.20
2017-12-27T14:45:24.835Z,51.70
2017-12-27T14:47:53.340Z,51.70
2017-12-27T14:50:23.810Z,51.70
2017-12-27T14:52:54.372Z,51.80
2017-12-27T14:55:24.170Z,51.70
2017-12-27T14:57:55.834Z,51.80
2017-12-27T15:00:24.701Z,51.80
2017-12-27T15:02:55.343Z,51.80
2017-12-27T15:05:24.693Z,51.80
2017-12-27T15:07:56.480Z,51.80
2017-12-27T15:10:26.820Z,51.90
2017-12-27T15:12:57.511Z,52.00
2017-12-27T15:15:26.666Z,52.00
2017-12-27T15:17:57.654Z,52.00
2017-12-27T15:20:28.418Z,52.10
2017-12-27T15:22:58.340Z,52.10
2017-12-27T15:25:26.581Z,51.80
2017-12-27T15:27:54.014Z,51.80
2017-12-27T15:30:21.491Z,51.70
2017-12-27T15:32:51.071Z,51.60
2017-12-27T15:35:19.758Z,51.50
2017-12-27T15:37:48.160Z,51.50
2017-12-27T15:40:17.436Z,51.40
2017-12-27T15:42:46.273Z,51.40
2017-12-27T15:45:13.871Z,51.30
2017-12-27T15:47:42.454Z,52.00
2017-12-27T15:50:09.902Z,51.30
2017-12-27T15:52:37.341Z,51.30
2017-12-27T15:55:04.789Z,51.20
2017-12-27T15:57:32.290Z,51.30
2017-12-27T15:59:59.786Z,51.20
2017-12-27T16:02:28.275Z,51.20
2017-12-27T16:04:56.879Z,51.60
2017-12-27T16:07:24.615Z,51.00
2017-12-27T16:09:53.733Z,51.70
2017-12-27T16:12:21.785Z,51.00
2017-12-27T16:14:49.245Z,51.00
2017-12-27T16:17:16.670Z,51.00
2017-12-27T16:19:44.110Z,51.00
2017-12-27T16:22:11.543Z,51.00
2017-12-27T16:24:38.990Z,50.90
2017-12-27T16:27:06.422Z,50.90
2017-12-27T16:29:33.863Z,50.90
2017-12-27T16:32:02.072Z,50.80
2017-12-27T16:34:29.509Z,50.80
2017-12-27T16:36:56.937Z,50.80
2017-12-27T16:39:24.387Z,50.80
2017-12-27T16:41:51.904Z,50.80
2017-12-27T16:44:19.507Z,50.80
2017-12-27T16:46:46.996Z,50.80
2017-12-27T16:49:14.425Z,50.70
2017-12-27T16:51:42.627Z,50.70
2017-12-27T16:54:10.059Z,50.70
2017-12-27T16:56:38.262Z,50.70
2017-12-27T16:59:05.692Z,50.70
2017-12-27T17:01:33.885Z,50.70
2017-12-27T17:04:01.318Z,50.70
2017-12-27T17:06:29.526Z,50.70
2017-12-27T17:08:56.962Z,50.60
2017-12-27T17:11:24.436Z,50.60
2017-12-27T17:13:51.919Z,50.60
2017-12-27T17:16:19.358Z,50.60
2017-12-27T17:18:46.800Z,50.60
2017-12-27T17:21:14.252Z,50.60
2017-12-27T17:23:41.682Z,50.60
2017-12-27T17:26:10.355Z,50.60
2017-12-27T17:28:37.783Z,50.60
2017-12-27T17:31:05.233Z,50.50
2017-12-27T17:33:32.668Z,50.50
2017-12-27T17:36:00.109Z,50.50
2017-12-27T17:38:27.541Z,50.40
2017-12-27T17:40:55.785Z,50.40
2017-12-27T17:43:23.197Z,50.40
2017-12-27T17:45:50.676Z,50.40
2017-12-27T17:48:18.133Z,50.40
2017-12-27T17:50:45.579Z,50.40
2017-12-27T17:53:13.019Z,50.40
2017-12-27T17:55:40.462Z,50.40
2017-12-27T17:58:07.891Z,50.40
2017-12-27T18:00:35.337Z,50.40
2017-12-27T18:03:02.770Z,50.40
2017-12-27T18:05:30.221Z,50.40
2017-12-27T18:07:57.649Z,50.30
2017-12-27T18:10:26.301Z,51.00
2017-12-27T18:12:54.551Z,50.30
2017-12-27T18:15:22.055Z,50.30
2017-12-27T18:17:49.486Z,50.30
2017-12-27T18:20:16.913Z,50.30
2017-12-27T18:22:45.137Z,50.40
2017-12-27T18:25:12.547Z,50.30
2017-12-27T18:27:39.990Z,50.30
2017-12-27T18:30:07.432Z,50.30
2017-12-27T18:32:34.889Z,50.30
2017-12-27T18:35:02.334Z,50.30
2017-12-27T18:37:29.770Z,50.30
2017-12-27T18:39:57.202Z,50.30
2017-12-27T18:42:24.650Z,50.40
2017-12-27T18:44:52.144Z,50.40
2017-12-27T18:47:20.405Z,50.30
2017-12-27T18:49:48.710Z,50.40
2017-12-27T18:52:16.154Z,50.20
2017-12-27T18:54:43.588Z,50.30
2017-12-27T18:57:11.798Z,50.30
2017-12-27T18:59:39.237Z,50.30
2017-12-27T19:02:06.689Z,50.30
2017-12-27T19:04:34.122Z,50.30
2017-12-27T19:07:02.335Z,50.40
2017-12-27T19:09:29.768Z,50.30
2017-12-27T19:11:57.263Z,50.20
2017-12-27T19:14:24.721Z,50.30
2017-12-27T19:16:52.224Z,50.20
2017-12-27T19:19:20.429Z,50.30
2017-12-27T19:21:47.881Z,50.30
2017-12-27T19:24:15.316Z,50.20
2017-12-27T19:26:43.530Z,50.30
2017-12-27T19:29:10.978Z,50.30
2017-12-27T19:31:38.417Z,50.20
2017-12-27T19:34:05.852Z,50.20
2017-12-27T19:36:34.090Z,50.30
2017-12-27T19:39:01.589Z,50.20
2017-12-27T19:41:29.793Z,50.20
2017-12-27T19:43:57.461Z,50.20
2017-12-27T19:46:24.899Z,50.20
2017-12-27T19:48:52.342Z,50.20
2017-12-27T19:51:19.784Z,50.20
2017-12-27T19:53:47.990Z,50.20
2017-12-27T19:56:15.401Z,50.20
2017-12-27T19:58:43.617Z,50.20
2017-12-27T20:01:11.050Z,50.20
2017-12-27T20:03:38.493Z,50.20
2017-12-27T20:06:05.992Z,50.20
2017-12-27T20:08:33.533Z,50.20
2017-12-27T20:11:01.829Z,50.10
2017-12-27T20:13:29.419Z,50.10
2017-12-27T20:15:56.858Z,50.10
2017-12-27T20:18:24.301Z,50.10
2017-12-27T20:20:51.743Z,50.10
2017-12-27T20:23:19.200Z,50.20
2017-12-27T20:25:46.652Z,50.10
2017-12-27T20:28:14.091Z,50.20
2017-12-27T20:30:41.525Z,50.20
2017-12-27T20:33:09.804Z,50.80
2017-12-27T20:35:37.189Z,50.10
2017-12-27T20:38:04.621Z,50.10
2017-12-27T20:40:32.824Z,50.20
2017-12-27T20:43:00.287Z,50.10
2017-12-27T20:45:28.466Z,50.10
2017-12-27T20:47:55.913Z,50.10
2017-12-27T20:50:23.410Z,50.10
2017-12-27T20:52:51.003Z,50.10
2017-12-27T20:55:18.479Z,50.10
2017-12-27T20:57:45.969Z,50.20
2017-12-27T21:00:13.407Z,50.10
2017-12-27T21:02:41.606Z,50.80
2017-12-27T21:05:09.054Z,50.10
2017-12-27T21:07:36.495Z,50.20
2017-12-27T21:10:03.938Z,50.20
2017-12-27T21:12:31.537Z,50.20
2017-12-27T21:14:59.143Z,50.20
2017-12-27T21:17:26.761Z,50.20
2017-12-27T21:19:55.042Z,50.20
2017-12-27T21:22:23.365Z,50.10
2017-12-27T21:24:50.916Z,50.20
2017-12-27T21:27:18.675Z,50.10
2017-12-27T21:29:46.717Z,50.20
2017-12-27T21:32:14.250Z,50.20
2017-12-27T21:34:41.699Z,50.20
2017-12-27T21:37:09.138Z,50.20
2017-12-27T21:39:36.575Z,50.20
2017-12-27T21:42:04.011Z,50.20
2017-12-27T21:44:31.438Z,50.20
2017-12-27T21:46:58.931Z,50.10
2017-12-27T21:49:31.999Z,50.10
2017-12-27T21:52:00.261Z,50.10
2017-12-27T21:54:28.015Z,50.10
2017-12-27T21:56:55.773Z,49.60
2017-12-27T21:59:29.314Z,50.20
2017-12-27T22:01:57.036Z,50.10
2017-12-27T22:04:25.793Z,50.70
2017-12-27T22:06:54.940Z,50.10
2017-12-27T22:09:23.806Z,50.10
2017-12-27T22:11:54.190Z,50.10
2017-12-27T22:14:22.103Z,50.10
2017-12-27T22:16:49.570Z,50.10
2017-12-27T22:19:16.991Z,50.10
2017-12-27T22:21:44.436Z,50.20
2017-12-27T22:24:11.863Z,50.10
2017-12-27T22:26:39.295Z,50.20
2017-12-27T22:29:07.486Z,50.20
2017-12-27T22:31:34.913Z,50.20
2017-12-27T22:34:02.354Z,50.20
2017-12-27T22:36:29.815Z,50.20
2017-12-27T22:38:59.115Z,50.20
2017-12-27T22:41:28.155Z,50.20
2017-12-27T22:43:57.997Z,50.20
2017-12-27T22:46:28.501Z,50.20
2017-12-27T22:48:57.490Z,50.20
2017-12-27T22:51:26.263Z,50.20
2017-12-27T22:53:58.426Z,50.20
2017-12-27T22:56:27.358Z,50.20
2017-12-27T22:58:57.976Z,50.20
2017-12-27T23:01:26.550Z,50.20
2017-12-27T23:03:57.729Z,50.20
2017-12-27T23:06:28.508Z,50.10
2017-12-27T23:09:01.111Z,50.10
2017-12-27T23:11:28.859Z,50.10
2017-12-27T23:13:56.573Z,50.10
2017-12-27T23:16:24.820Z,50.10
2017-12-27T23:18:53.550Z,50.20
2017-12-27T23:21:21.251Z,50.20
2017-12-27T23:23:48.673Z,50.10
2017-12-27T23:26:17.740Z,50.20
2017-12-27T23:28:45.320Z,50.20
2017-12-27T23:31:12.825Z,50.10
2017-12-27T23:33:40.254Z,50.20
2017-12-27T23:36:07.701Z,50.20
2017-12-27T23:38:35.138Z,50.20
2017-12-27T23:41:03.334Z,50.20
2017-12-27T23:43:30.797Z,50.10
2017-12-27T23:45:58.467Z,50.20
2017-12-27T23:48:26.451Z,50.00
2017-12-27T23:50:54.801Z,50.10
2017-12-27T23:53:22.765Z,50.10
2017-12-27T23:55:51.135Z,50.10
2017-12-27T23:58:18.595Z,50.10
